sensor_id;sensor_type;location;lat;lon;timestamp;temperature;humidity
15900;DHT22;8048;50.644;6.184;2022-11-20T00:01:44;5.00;99.90
15900;DHT22;8048;50.644;6.184;2022-11-20T00:04:10;4.90;99.90
15900;DHT22;8048;50.644;6.184;2022-11-20T00:06:37;5.00;99.90
15900;DHT22;8048;50.644;6.184;2022-11-20T00:09:03;4.90;99.90
15900;DHT22;8048;50.644;6.184;2022-11-20T00:11:31;4.80;99.90
15900;DHT22;8048;50.644;6.184;2022-11-20T00:13:59;4.80;99.90
15900;DHT22;8048;50.644;6.184;2022-11-20T00:16:27;4.80;99.90
15900;DHT22;8048;50.644;6.184;2022-11-20T00:18:53;4.80;99.90
15900;DHT22;8048;50.644;6.184;2022-11-20T00:21:25;4.90;99.90
15900;DHT22;8048;50.644;6.184;2022-11-20T00:23:53;4.90;99.90
15900;DHT22;8048;50.644;6.184;2022-11-20T00:26:20;4.90;99.90
15900;DHT22;8048;50.644;6.184;2022-11-20T00:28:57;4.90;99.90
15900;DHT22;8048;50.644;6.184;2022-11-20T00:31:22;4.90;99.90
15900;DHT22;8048;50.644;6.184;2022-11-20T00:33:48;4.90;99.90
15900;DHT22;8048;50.644;6.184;2022-11-20T00:36:17;4.90;99.90
15900;DHT22;8048;50.644;6.184;2022-11-20T00:38:44;4.90;99.90
15900;DHT22;8048;50.644;6.184;2022-11-20T00:41:15;4.90;99.90
15900;DHT22;8048;50.644;6.184;2022-11-20T00:43:41;4.90;99.90
15900;DHT22;8048;50.644;6.184;2022-11-20T00:46:09;4.90;99.90
15900;DHT22;8048;50.644;6.184;2022-11-20T00:48:35;4.90;99.90
15900;DHT22;8048;50.644;6.184;2022-11-20T00:51:01;4.90;99.90
15900;DHT22;8048;50.644;6.184;2022-11-20T00:53:26;4.90;99.90
15900;DHT22;8048;50.644;6.184;2022-11-20T00:55:57;4.90;99.90
15900;DHT22;8048;50.644;6.184;2022-11-20T00:58:23;4.90;99.90
15900;DHT22;8048;50.644;6.184;2022-11-20T01:00:50;4.90;99.90
15900;DHT22;8048;50.644;6.184;2022-11-20T01:03:16;4.90;99.90
15900;DHT22;8048;50.644;6.184;2022-11-20T01:05:42;4.90;99.90
15900;DHT22;8048;50.644;6.184;2022-11-20T01:08:08;4.90;99.90
15900;DHT22;8048;50.644;6.184;2022-11-20T01:10:34;4.80;99.90
15900;DHT22;8048;50.644;6.184;2022-11-20T01:12:59;4.80;99.90
15900;DHT22;8048;50.644;6.184;2022-11-20T01:15:43;4.80;99.90
15900;DHT22;8048;50.644;6.184;2022-11-20T01:18:09;4.80;99.90
15900;DHT22;8048;50.644;6.184;2022-11-20T01:20:35;4.80;99.90
15900;DHT22;8048;50.644;6.184;2022-11-20T01:23:02;4.70;99.90
15900;DHT22;8048;50.644;6.184;2022-11-20T01:25:27;4.70;99.90
15900;DHT22;8048;50.644;6.184;2022-11-20T01:27:53;4.70;99.90
15900;DHT22;8048;50.644;6.184;2022-11-20T01:30:18;4.80;99.90
15900;DHT22;8048;50.644;6.184;2022-11-20T01:32:44;4.80;99.90
15900;DHT22;8048;50.644;6.184;2022-11-20T01:35:09;4.80;99.90
15900;DHT22;8048;50.644;6.184;2022-11-20T01:37:35;4.80;99.90
15900;DHT22;8048;50.644;6.184;2022-11-20T01:40:01;4.80;99.90
15900;DHT22;8048;50.644;6.184;2022-11-20T01:42:27;4.90;99.90
15900;DHT22;8048;50.644;6.184;2022-11-20T01:48:11;4.90;99.90
15900;DHT22;8048;50.644;6.184;2022-11-20T01:50:36;4.90;99.90
15900;DHT22;8048;50.644;6.184;2022-11-20T01:53:07;4.90;99.90
15900;DHT22;8048;50.644;6.184;2022-11-20T01:55:42;4.90;99.90
15900;DHT22;8048;50.644;6.184;2022-11-20T01:58:09;4.80;99.90
15900;DHT22;8048;50.644;6.184;2022-11-20T02:00:35;4.90;99.90
15900;DHT22;8048;50.644;6.184;2022-11-20T02:03:07;4.80;99.90
15900;DHT22;8048;50.644;6.184;2022-11-20T02:08:06;4.70;99.90
15900;DHT22;8048;50.644;6.184;2022-11-20T02:10:33;4.70;99.90
15900;DHT22;8048;50.644;6.184;2022-11-20T02:12:58;4.70;99.90
15900;DHT22;8048;50.644;6.184;2022-11-20T02:15:43;4.60;99.90
15900;DHT22;8048;50.644;6.184;2022-11-20T02:18:10;4.50;99.90
15900;DHT22;8048;50.644;6.184;2022-11-20T02:20:36;4.50;99.90
15900;DHT22;8048;50.644;6.184;2022-11-20T02:23:10;4.50;99.90
15900;DHT22;8048;50.644;6.184;2022-11-20T02:25:37;4.60;99.90
15900;DHT22;8048;50.644;6.184;2022-11-20T02:28:05;4.60;99.90
15900;DHT22;8048;50.644;6.184;2022-11-20T02:30:30;4.60;99.90
15900;DHT22;8048;50.644;6.184;2022-11-20T02:32:57;4.60;99.90
15900;DHT22;8048;50.644;6.184;2022-11-20T02:37:50;4.60;99.90
15900;DHT22;8048;50.644;6.184;2022-11-20T02:40:18;4.50;99.90
15900;DHT22;8048;50.644;6.184;2022-11-20T02:42:44;4.50;99.90
15900;DHT22;8048;50.644;6.184;2022-11-20T02:45:10;4.50;99.90
15900;DHT22;8048;50.644;6.184;2022-11-20T02:47:36;4.50;99.90
15900;DHT22;8048;50.644;6.184;2022-11-20T02:50:02;4.50;99.90
15900;DHT22;8048;50.644;6.184;2022-11-20T02:52:27;4.50;99.90
15900;DHT22;8048;50.644;6.184;2022-11-20T02:54:53;4.50;99.90
15900;DHT22;8048;50.644;6.184;2022-11-20T02:57:19;4.50;99.90
15900;DHT22;8048;50.644;6.184;2022-11-20T02:59:44;4.50;99.90
15900;DHT22;8048;50.644;6.184;2022-11-20T03:02:10;4.50;99.90
15900;DHT22;8048;50.644;6.184;2022-11-20T03:04:35;4.60;99.90
15900;DHT22;8048;50.644;6.184;2022-11-20T03:07:01;4.50;99.90
15900;DHT22;8048;50.644;6.184;2022-11-20T03:09:26;4.50;99.90
15900;DHT22;8048;50.644;6.184;2022-11-20T03:11:52;4.50;99.90
15900;DHT22;8048;50.644;6.184;2022-11-20T03:14:17;4.60;99.90
15900;DHT22;8048;50.644;6.184;2022-11-20T03:16:43;4.50;99.90
15900;DHT22;8048;50.644;6.184;2022-11-20T03:19:09;4.50;99.90
15900;DHT22;8048;50.644;6.184;2022-11-20T03:21:34;4.50;99.90
15900;DHT22;8048;50.644;6.184;2022-11-20T03:24:00;4.40;99.90
15900;DHT22;8048;50.644;6.184;2022-11-20T03:26:27;4.40;99.90
15900;DHT22;8048;50.644;6.184;2022-11-20T03:28:55;4.40;99.90
15900;DHT22;8048;50.644;6.184;2022-11-20T03:31:26;4.50;99.90
15900;DHT22;8048;50.644;6.184;2022-11-20T03:33:52;4.50;99.90
15900;DHT22;8048;50.644;6.184;2022-11-20T03:36:20;4.50;99.90
15900;DHT22;8048;50.644;6.184;2022-11-20T03:38:46;4.50;99.90
15900;DHT22;8048;50.644;6.184;2022-11-20T03:41:18;4.50;99.90
15900;DHT22;8048;50.644;6.184;2022-11-20T03:43:52;4.50;99.90
15900;DHT22;8048;50.644;6.184;2022-11-20T03:46:19;4.60;99.90
15900;DHT22;8048;50.644;6.184;2022-11-20T03:48:45;4.50;99.90
15900;DHT22;8048;50.644;6.184;2022-11-20T03:54:08;4.50;99.90
15900;DHT22;8048;50.644;6.184;2022-11-20T03:56:36;4.60;99.90
15900;DHT22;8048;50.644;6.184;2022-11-20T03:59:02;4.60;99.90
15900;DHT22;8048;50.644;6.184;2022-11-20T04:01:31;4.60;99.90
15900;DHT22;8048;50.644;6.184;2022-11-20T04:03:57;4.50;99.90
15900;DHT22;8048;50.644;6.184;2022-11-20T04:06:26;4.50;99.90
15900;DHT22;8048;50.644;6.184;2022-11-20T04:08:57;4.40;99.90
15900;DHT22;8048;50.644;6.184;2022-11-20T04:11:28;4.50;99.90
15900;DHT22;8048;50.644;6.184;2022-11-20T04:13:56;4.40;99.90
15900;DHT22;8048;50.644;6.184;2022-11-20T04:16:24;4.40;99.90
15900;DHT22;8048;50.644;6.184;2022-11-20T04:18:53;4.50;99.90
15900;DHT22;8048;50.644;6.184;2022-11-20T04:21:19;4.50;99.90
15900;DHT22;8048;50.644;6.184;2022-11-20T04:23:45;4.50;99.90
15900;DHT22;8048;50.644;6.184;2022-11-20T04:26:11;4.40;99.90
15900;DHT22;8048;50.644;6.184;2022-11-20T04:28:37;4.40;99.90
15900;DHT22;8048;50.644;6.184;2022-11-20T04:31:08;4.50;99.90
15900;DHT22;8048;50.644;6.184;2022-11-20T04:33:35;4.60;99.90
15900;DHT22;8048;50.644;6.184;2022-11-20T04:36:09;4.50;99.90
15900;DHT22;8048;50.644;6.184;2022-11-20T04:38:36;4.40;99.90
15900;DHT22;8048;50.644;6.184;2022-11-20T04:41:04;4.40;99.90
15900;DHT22;8048;50.644;6.184;2022-11-20T04:43:30;4.40;99.90
15900;DHT22;8048;50.644;6.184;2022-11-20T04:45:56;4.40;99.90
15900;DHT22;8048;50.644;6.184;2022-11-20T04:48:23;4.30;99.90
15900;DHT22;8048;50.644;6.184;2022-11-20T04:50:50;4.40;99.90
15900;DHT22;8048;50.644;6.184;2022-11-20T04:53:15;4.40;99.90
15900;DHT22;8048;50.644;6.184;2022-11-20T04:55:41;4.40;99.90
15900;DHT22;8048;50.644;6.184;2022-11-20T04:58:06;4.30;99.90
15900;DHT22;8048;50.644;6.184;2022-11-20T05:00:32;4.40;99.90
15900;DHT22;8048;50.644;6.184;2022-11-20T05:02:57;4.40;99.90
15900;DHT22;8048;50.644;6.184;2022-11-20T05:05:23;4.30;99.90
15900;DHT22;8048;50.644;6.184;2022-11-20T05:07:48;4.30;99.90
15900;DHT22;8048;50.644;6.184;2022-11-20T05:10:14;4.40;99.90
15900;DHT22;8048;50.644;6.184;2022-11-20T05:12:40;4.40;99.90
15900;DHT22;8048;50.644;6.184;2022-11-20T05:15:06;4.40;99.90
15900;DHT22;8048;50.644;6.184;2022-11-20T05:17:31;4.30;99.90
15900;DHT22;8048;50.644;6.184;2022-11-20T05:19:57;4.30;99.90
15900;DHT22;8048;50.644;6.184;2022-11-20T05:22:22;4.40;99.90
15900;DHT22;8048;50.644;6.184;2022-11-20T05:24:48;4.40;99.90
15900;DHT22;8048;50.644;6.184;2022-11-20T05:27:13;4.30;99.90
15900;DHT22;8048;50.644;6.184;2022-11-20T05:29:39;4.40;99.90
15900;DHT22;8048;50.644;6.184;2022-11-20T05:32:05;4.30;99.90
15900;DHT22;8048;50.644;6.184;2022-11-20T05:34:32;4.30;99.90
15900;DHT22;8048;50.644;6.184;2022-11-20T05:36:58;4.10;99.90
15900;DHT22;8048;50.644;6.184;2022-11-20T05:39:23;4.20;99.90
15900;DHT22;8048;50.644;6.184;2022-11-20T05:41:49;4.20;99.90
15900;DHT22;8048;50.644;6.184;2022-11-20T05:44:34;4.20;99.90
15900;DHT22;8048;50.644;6.184;2022-11-20T05:47:00;4.20;99.90
15900;DHT22;8048;50.644;6.184;2022-11-20T05:49:25;4.20;99.90
15900;DHT22;8048;50.644;6.184;2022-11-20T05:51:51;4.20;99.90
15900;DHT22;8048;50.644;6.184;2022-11-20T05:54:17;4.10;99.90
15900;DHT22;8048;50.644;6.184;2022-11-20T05:56:42;4.20;99.90
15900;DHT22;8048;50.644;6.184;2022-11-20T05:59:08;4.20;99.90
15900;DHT22;8048;50.644;6.184;2022-11-20T06:01:33;4.20;99.90
15900;DHT22;8048;50.644;6.184;2022-11-20T06:04:01;4.20;99.90
15900;DHT22;8048;50.644;6.184;2022-11-20T06:06:26;4.20;99.90
15900;DHT22;8048;50.644;6.184;2022-11-20T06:08:52;4.20;99.90
15900;DHT22;8048;50.644;6.184;2022-11-20T06:11:18;4.20;99.90
15900;DHT22;8048;50.644;6.184;2022-11-20T06:13:44;4.20;99.90
15900;DHT22;8048;50.644;6.184;2022-11-20T06:16:12;4.20;99.90
15900;DHT22;8048;50.644;6.184;2022-11-20T06:18:38;4.20;99.90
15900;DHT22;8048;50.644;6.184;2022-11-20T06:21:12;4.20;99.90
15900;DHT22;8048;50.644;6.184;2022-11-20T06:23:38;4.30;99.90
15900;DHT22;8048;50.644;6.184;2022-11-20T06:26:07;4.20;99.90
15900;DHT22;8048;50.644;6.184;2022-11-20T06:28:33;4.20;99.90
15900;DHT22;8048;50.644;6.184;2022-11-20T06:30:59;4.20;99.90
15900;DHT22;8048;50.644;6.184;2022-11-20T06:33:25;4.10;99.90
15900;DHT22;8048;50.644;6.184;2022-11-20T06:35:51;4.10;99.90
15900;DHT22;8048;50.644;6.184;2022-11-20T06:38:16;4.10;99.90
15900;DHT22;8048;50.644;6.184;2022-11-20T06:40:42;4.10;99.90
15900;DHT22;8048;50.644;6.184;2022-11-20T06:43:09;4.10;99.90
15900;DHT22;8048;50.644;6.184;2022-11-20T06:45:35;4.10;99.90
15900;DHT22;8048;50.644;6.184;2022-11-20T06:48:01;4.10;99.90
15900;DHT22;8048;50.644;6.184;2022-11-20T06:50:26;4.20;99.90
15900;DHT22;8048;50.644;6.184;2022-11-20T06:52:52;4.20;99.90
15900;DHT22;8048;50.644;6.184;2022-11-20T06:55:17;4.20;99.90
15900;DHT22;8048;50.644;6.184;2022-11-20T06:57:43;4.20;99.90
15900;DHT22;8048;50.644;6.184;2022-11-20T07:00:09;4.20;99.90
15900;DHT22;8048;50.644;6.184;2022-11-20T07:02:35;4.20;99.90
15900;DHT22;8048;50.644;6.184;2022-11-20T07:05:00;4.20;99.90
15900;DHT22;8048;50.644;6.184;2022-11-20T07:07:26;4.30;99.90
15900;DHT22;8048;50.644;6.184;2022-11-20T07:09:51;4.30;99.90
15900;DHT22;8048;50.644;6.184;2022-11-20T07:12:17;4.20;99.90
15900;DHT22;8048;50.644;6.184;2022-11-20T07:14:42;4.20;99.90
15900;DHT22;8048;50.644;6.184;2022-11-20T07:17:08;4.00;99.90
15900;DHT22;8048;50.644;6.184;2022-11-20T07:19:33;4.10;99.90
15900;DHT22;8048;50.644;6.184;2022-11-20T07:21:59;4.10;99.90
15900;DHT22;8048;50.644;6.184;2022-11-20T07:24:24;4.10;99.90
15900;DHT22;8048;50.644;6.184;2022-11-20T07:26:50;4.00;99.90
15900;DHT22;8048;50.644;6.184;2022-11-20T07:29:16;4.00;99.90
15900;DHT22;8048;50.644;6.184;2022-11-20T07:31:42;3.90;99.90
15900;DHT22;8048;50.644;6.184;2022-11-20T07:34:08;3.80;99.90
15900;DHT22;8048;50.644;6.184;2022-11-20T07:36:33;3.90;99.90
15900;DHT22;8048;50.644;6.184;2022-11-20T07:38:59;3.80;99.90
15900;DHT22;8048;50.644;6.184;2022-11-20T07:41:25;3.80;99.90
15900;DHT22;8048;50.644;6.184;2022-11-20T07:43:50;3.80;99.90
15900;DHT22;8048;50.644;6.184;2022-11-20T07:46:15;3.80;99.90
15900;DHT22;8048;50.644;6.184;2022-11-20T07:48:41;3.80;99.90
15900;DHT22;8048;50.644;6.184;2022-11-20T07:51:07;3.80;99.90
15900;DHT22;8048;50.644;6.184;2022-11-20T07:53:32;3.80;99.90
15900;DHT22;8048;50.644;6.184;2022-11-20T07:56:02;3.80;99.90
15900;DHT22;8048;50.644;6.184;2022-11-20T07:58:29;3.90;99.90
15900;DHT22;8048;50.644;6.184;2022-11-20T08:00:55;3.80;99.90
15900;DHT22;8048;50.644;6.184;2022-11-20T08:03:21;3.80;99.90
15900;DHT22;8048;50.644;6.184;2022-11-20T08:05:46;3.80;99.90
15900;DHT22;8048;50.644;6.184;2022-11-20T08:08:12;3.90;99.90
15900;DHT22;8048;50.644;6.184;2022-11-20T08:10:37;3.80;99.90
15900;DHT22;8048;50.644;6.184;2022-11-20T08:13:03;3.90;99.90
15900;DHT22;8048;50.644;6.184;2022-11-20T08:15:49;3.90;99.90
15900;DHT22;8048;50.644;6.184;2022-11-20T08:18:16;3.90;99.90
15900;DHT22;8048;50.644;6.184;2022-11-20T08:20:42;3.90;99.90
15900;DHT22;8048;50.644;6.184;2022-11-20T08:23:08;3.90;99.90
15900;DHT22;8048;50.644;6.184;2022-11-20T08:25:35;4.00;99.90
15900;DHT22;8048;50.644;6.184;2022-11-20T08:28:04;4.10;99.90
15900;DHT22;8048;50.644;6.184;2022-11-20T08:30:30;4.10;99.90
15900;DHT22;8048;50.644;6.184;2022-11-20T08:33:01;4.10;99.90
15900;DHT22;8048;50.644;6.184;2022-11-20T08:35:27;4.20;99.90
15900;DHT22;8048;50.644;6.184;2022-11-20T08:37:53;4.20;99.90
15900;DHT22;8048;50.644;6.184;2022-11-20T08:40:18;4.20;99.90
15900;DHT22;8048;50.644;6.184;2022-11-20T08:42:48;4.20;99.90
15900;DHT22;8048;50.644;6.184;2022-11-20T08:45:14;4.20;99.90
15900;DHT22;8048;50.644;6.184;2022-11-20T08:47:40;4.20;99.90
15900;DHT22;8048;50.644;6.184;2022-11-20T08:50:07;4.20;99.90
15900;DHT22;8048;50.644;6.184;2022-11-20T08:52:33;4.20;99.90
15900;DHT22;8048;50.644;6.184;2022-11-20T08:54:59;4.30;99.90
15900;DHT22;8048;50.644;6.184;2022-11-20T08:57:24;4.20;99.90
15900;DHT22;8048;50.644;6.184;2022-11-20T08:59:50;4.30;99.90
15900;DHT22;8048;50.644;6.184;2022-11-20T09:02:15;4.30;99.90
15900;DHT22;8048;50.644;6.184;2022-11-20T09:04:41;4.30;99.90
15900;DHT22;8048;50.644;6.184;2022-11-20T09:07:06;4.40;99.90
15900;DHT22;8048;50.644;6.184;2022-11-20T09:09:32;4.40;99.90
15900;DHT22;8048;50.644;6.184;2022-11-20T09:11:58;4.50;99.90
15900;DHT22;8048;50.644;6.184;2022-11-20T09:14:23;4.50;99.90
15900;DHT22;8048;50.644;6.184;2022-11-20T09:16:54;4.60;99.90
15900;DHT22;8048;50.644;6.184;2022-11-20T09:19:20;4.60;99.90
15900;DHT22;8048;50.644;6.184;2022-11-20T09:21:45;4.70;99.90
15900;DHT22;8048;50.644;6.184;2022-11-20T09:24:11;4.70;99.90
15900;DHT22;8048;50.644;6.184;2022-11-20T09:26:36;4.80;99.90
15900;DHT22;8048;50.644;6.184;2022-11-20T09:29:02;4.90;99.90
15900;DHT22;8048;50.644;6.184;2022-11-20T09:31:27;4.80;99.90
15900;DHT22;8048;50.644;6.184;2022-11-20T09:33:53;4.80;99.90
15900;DHT22;8048;50.644;6.184;2022-11-20T09:36:19;4.90;99.90
15900;DHT22;8048;50.644;6.184;2022-11-20T09:38:45;4.90;99.90
15900;DHT22;8048;50.644;6.184;2022-11-20T09:41:36;5.00;99.90
15900;DHT22;8048;50.644;6.184;2022-11-20T09:44:25;5.10;99.90
15900;DHT22;8048;50.644;6.184;2022-11-20T09:50:06;5.10;99.90
15900;DHT22;8048;50.644;6.184;2022-11-20T09:53:01;5.20;99.90
15900;DHT22;8048;50.644;6.184;2022-11-20T09:55:31;5.30;99.90
15900;DHT22;8048;50.644;6.184;2022-11-20T09:57:57;5.30;99.90
15900;DHT22;8048;50.644;6.184;2022-11-20T10:00:24;5.40;99.90
15900;DHT22;8048;50.644;6.184;2022-11-20T10:03:06;5.40;99.90
15900;DHT22;8048;50.644;6.184;2022-11-20T10:05:53;5.40;99.90
15900;DHT22;8048;50.644;6.184;2022-11-20T10:08:24;5.50;99.90
15900;DHT22;8048;50.644;6.184;2022-11-20T10:10:53;5.60;99.90
15900;DHT22;8048;50.644;6.184;2022-11-20T10:13:55;5.60;99.90
15900;DHT22;8048;50.644;6.184;2022-11-20T10:16:34;5.60;99.90
15900;DHT22;8048;50.644;6.184;2022-11-20T10:19:31;5.70;99.90
15900;DHT22;8048;50.644;6.184;2022-11-20T10:25:12;5.80;99.90
15900;DHT22;8048;50.644;6.184;2022-11-20T10:28:05;5.80;99.90
15900;DHT22;8048;50.644;6.184;2022-11-20T10:30:39;5.80;99.90
15900;DHT22;8048;50.644;6.184;2022-11-20T10:33:19;5.80;99.90
15900;DHT22;8048;50.644;6.184;2022-11-20T10:35:57;5.80;99.90
15900;DHT22;8048;50.644;6.184;2022-11-20T10:41:25;5.90;99.90
15900;DHT22;8048;50.644;6.184;2022-11-20T10:44:16;6.00;99.90
15900;DHT22;8048;50.644;6.184;2022-11-20T10:47:01;6.10;99.90
15900;DHT22;8048;50.644;6.184;2022-11-20T10:49:27;6.10;99.90
15900;DHT22;8048;50.644;6.184;2022-11-20T10:54:44;6.20;99.90
15900;DHT22;8048;50.644;6.184;2022-11-20T10:57:20;6.20;99.90
15900;DHT22;8048;50.644;6.184;2022-11-20T10:59:59;6.30;99.90
15900;DHT22;8048;50.644;6.184;2022-11-20T11:02:35;6.30;99.90
15900;DHT22;8048;50.644;6.184;2022-11-20T11:05:48;6.40;99.90
15900;DHT22;8048;50.644;6.184;2022-11-20T11:08:17;6.40;99.90
15900;DHT22;8048;50.644;6.184;2022-11-20T11:10:48;6.50;99.90
15900;DHT22;8048;50.644;6.184;2022-11-20T11:13:25;6.60;99.90
15900;DHT22;8048;50.644;6.184;2022-11-20T11:15:52;6.70;99.90
15900;DHT22;8048;50.644;6.184;2022-11-20T11:18:32;6.80;99.90
15900;DHT22;8048;50.644;6.184;2022-11-20T11:21:00;6.90;99.90
15900;DHT22;8048;50.644;6.184;2022-11-20T11:25:59;7.00;99.90
15900;DHT22;8048;50.644;6.184;2022-11-20T11:28:25;7.10;99.90
15900;DHT22;8048;50.644;6.184;2022-11-20T11:30:53;7.20;99.90
15900;DHT22;8048;50.644;6.184;2022-11-20T11:35:50;7.20;99.90
15900;DHT22;8048;50.644;6.184;2022-11-20T11:38:22;7.30;99.90
15900;DHT22;8048;50.644;6.184;2022-11-20T11:40:49;7.30;99.90
15900;DHT22;8048;50.644;6.184;2022-11-20T11:43:24;7.30;99.90
15900;DHT22;8048;50.644;6.184;2022-11-20T11:46:30;7.40;99.90
15900;DHT22;8048;50.644;6.184;2022-11-20T11:51:46;7.50;99.90
15900;DHT22;8048;50.644;6.184;2022-11-20T11:54:22;7.50;99.90
15900;DHT22;8048;50.644;6.184;2022-11-20T11:56:49;7.50;99.90
15900;DHT22;8048;50.644;6.184;2022-11-20T11:59:45;7.60;99.90
15900;DHT22;8048;50.644;6.184;2022-11-20T12:03:10;7.60;99.90
15900;DHT22;8048;50.644;6.184;2022-11-20T12:08:17;7.60;99.90
15900;DHT22;8048;50.644;6.184;2022-11-20T12:10:56;7.60;99.90
15900;DHT22;8048;50.644;6.184;2022-11-20T12:16:02;7.50;99.90
15900;DHT22;8048;50.644;6.184;2022-11-20T12:18:28;7.50;99.90
15900;DHT22;8048;50.644;6.184;2022-11-20T12:21:20;7.50;99.90
15900;DHT22;8048;50.644;6.184;2022-11-20T12:24:06;7.50;99.90
15900;DHT22;8048;50.644;6.184;2022-11-20T12:34:47;7.50;99.90
15900;DHT22;8048;50.644;6.184;2022-11-20T12:43:01;7.40;99.90
15900;DHT22;8048;50.644;6.184;2022-11-20T13:05:11;7.70;99.90
15900;DHT22;8048;50.644;6.184;2022-11-20T13:07:43;7.80;99.90
15900;DHT22;8048;50.644;6.184;2022-11-20T13:10:49;7.80;99.90
15900;DHT22;8048;50.644;6.184;2022-11-20T13:16:04;7.60;99.90
15900;DHT22;8048;50.644;6.184;2022-11-20T13:18:38;7.60;99.90
15900;DHT22;8048;50.644;6.184;2022-11-20T13:21:15;7.60;99.90
15900;DHT22;8048;50.644;6.184;2022-11-20T13:23:41;7.60;99.90
15900;DHT22;8048;50.644;6.184;2022-11-20T13:28:46;7.60;99.90
15900;DHT22;8048;50.644;6.184;2022-11-20T13:31:35;7.60;99.90
15900;DHT22;8048;50.644;6.184;2022-11-20T13:34:04;7.60;99.90
15900;DHT22;8048;50.644;6.184;2022-11-20T13:36:31;7.50;99.90
15900;DHT22;8048;50.644;6.184;2022-11-20T13:38:58;7.50;99.90
15900;DHT22;8048;50.644;6.184;2022-11-20T13:41:35;7.40;99.90
15900;DHT22;8048;50.644;6.184;2022-11-20T13:44:34;7.30;99.90
15900;DHT22;8048;50.644;6.184;2022-11-20T13:47:03;7.30;99.90
15900;DHT22;8048;50.644;6.184;2022-11-20T13:49:47;7.30;99.90
15900;DHT22;8048;50.644;6.184;2022-11-20T13:55:23;7.10;99.90
15900;DHT22;8048;50.644;6.184;2022-11-20T14:01:10;7.00;99.90
15900;DHT22;8048;50.644;6.184;2022-11-20T14:03:36;6.90;99.90
15900;DHT22;8048;50.644;6.184;2022-11-20T14:06:05;6.90;99.90
15900;DHT22;8048;50.644;6.184;2022-11-20T14:08:40;6.80;99.90
15900;DHT22;8048;50.644;6.184;2022-11-20T14:11:17;6.80;99.90
15900;DHT22;8048;50.644;6.184;2022-11-20T14:16:22;6.70;99.90
15900;DHT22;8048;50.644;6.184;2022-11-20T14:18:47;6.60;99.90
15900;DHT22;8048;50.644;6.184;2022-11-20T14:21:22;6.60;99.90
15900;DHT22;8048;50.644;6.184;2022-11-20T14:23:48;6.60;99.90
15900;DHT22;8048;50.644;6.184;2022-11-20T14:26:18;6.50;99.90
15900;DHT22;8048;50.644;6.184;2022-11-20T14:28:49;6.50;99.90
15900;DHT22;8048;50.644;6.184;2022-11-20T14:31:25;6.50;99.90
15900;DHT22;8048;50.644;6.184;2022-11-20T14:33:53;6.50;99.90
15900;DHT22;8048;50.644;6.184;2022-11-20T14:36:22;6.40;99.90
15900;DHT22;8048;50.644;6.184;2022-11-20T14:38:49;6.50;99.90
15900;DHT22;8048;50.644;6.184;2022-11-20T14:41:21;6.40;99.90
15900;DHT22;8048;50.644;6.184;2022-11-20T14:43:54;6.40;99.90
15900;DHT22;8048;50.644;6.184;2022-11-20T14:46:21;6.40;99.90
15900;DHT22;8048;50.644;6.184;2022-11-20T14:48:50;6.20;99.90
15900;DHT22;8048;50.644;6.184;2022-11-20T14:51:38;6.30;99.90
15900;DHT22;8048;50.644;6.184;2022-11-20T14:54:20;6.30;99.90
15900;DHT22;8048;50.644;6.184;2022-11-20T14:56:56;6.20;99.90
15900;DHT22;8048;50.644;6.184;2022-11-20T14:59:23;6.20;99.90
15900;DHT22;8048;50.644;6.184;2022-11-20T15:02:05;6.20;99.90
15900;DHT22;8048;50.644;6.184;2022-11-20T15:04:31;6.20;99.90
15900;DHT22;8048;50.644;6.184;2022-11-20T15:06:58;6.20;99.90
15900;DHT22;8048;50.644;6.184;2022-11-20T15:09:24;6.10;99.90
15900;DHT22;8048;50.644;6.184;2022-11-20T15:11:57;6.10;99.90
15900;DHT22;8048;50.644;6.184;2022-11-20T15:14:25;6.10;99.90
15900;DHT22;8048;50.644;6.184;2022-11-20T15:16:52;6.00;99.90
15900;DHT22;8048;50.644;6.184;2022-11-20T15:19:23;6.00;99.90
15900;DHT22;8048;50.644;6.184;2022-11-20T15:21:49;6.00;99.90
15900;DHT22;8048;50.644;6.184;2022-11-20T15:24:15;6.00;99.90
15900;DHT22;8048;50.644;6.184;2022-11-20T15:26:41;5.90;99.90
15900;DHT22;8048;50.644;6.184;2022-11-20T15:29:11;5.90;99.90
15900;DHT22;8048;50.644;6.184;2022-11-20T15:31:38;5.80;99.90
15900;DHT22;8048;50.644;6.184;2022-11-20T15:34:11;5.70;99.90
15900;DHT22;8048;50.644;6.184;2022-11-20T15:36:38;5.70;99.90
15900;DHT22;8048;50.644;6.184;2022-11-20T15:39:04;5.70;99.90
15900;DHT22;8048;50.644;6.184;2022-11-20T15:41:29;5.60;99.90
15900;DHT22;8048;50.644;6.184;2022-11-20T15:43:55;5.60;99.90
15900;DHT22;8048;50.644;6.184;2022-11-20T15:46:27;5.60;99.90
15900;DHT22;8048;50.644;6.184;2022-11-20T15:48:56;5.60;99.90
15900;DHT22;8048;50.644;6.184;2022-11-20T15:51:36;5.50;99.90
15900;DHT22;8048;50.644;6.184;2022-11-20T15:54:20;5.50;99.90
15900;DHT22;8048;50.644;6.184;2022-11-20T15:56:47;5.50;99.90
15900;DHT22;8048;50.644;6.184;2022-11-20T15:59:12;5.50;99.90
15900;DHT22;8048;50.644;6.184;2022-11-20T16:01:40;5.50;99.90
15900;DHT22;8048;50.644;6.184;2022-11-20T16:04:14;5.50;99.90
15900;DHT22;8048;50.644;6.184;2022-11-20T16:06:40;5.60;99.90
15900;DHT22;8048;50.644;6.184;2022-11-20T16:09:06;5.50;99.90
15900;DHT22;8048;50.644;6.184;2022-11-20T16:11:32;5.50;99.90
15900;DHT22;8048;50.644;6.184;2022-11-20T16:13:58;5.50;99.90
15900;DHT22;8048;50.644;6.184;2022-11-20T16:16:42;5.50;99.90
15900;DHT22;8048;50.644;6.184;2022-11-20T16:19:12;5.50;99.90
15900;DHT22;8048;50.644;6.184;2022-11-20T16:21:38;5.50;99.90
15900;DHT22;8048;50.644;6.184;2022-11-20T16:24:07;5.50;99.90
15900;DHT22;8048;50.644;6.184;2022-11-20T16:26:33;5.50;99.90
15900;DHT22;8048;50.644;6.184;2022-11-20T16:29:00;5.50;99.90
15900;DHT22;8048;50.644;6.184;2022-11-20T16:31:26;5.50;99.90
15900;DHT22;8048;50.644;6.184;2022-11-20T16:33:53;5.50;99.90
15900;DHT22;8048;50.644;6.184;2022-11-20T16:36:20;5.50;99.90
15900;DHT22;8048;50.644;6.184;2022-11-20T16:38:46;5.50;99.90
15900;DHT22;8048;50.644;6.184;2022-11-20T16:41:12;5.50;99.90
15900;DHT22;8048;50.644;6.184;2022-11-20T16:46:09;5.50;99.90
15900;DHT22;8048;50.644;6.184;2022-11-20T16:48:35;5.60;99.90
15900;DHT22;8048;50.644;6.184;2022-11-20T16:51:00;5.60;99.90
15900;DHT22;8048;50.644;6.184;2022-11-20T16:53:26;5.70;99.90
15900;DHT22;8048;50.644;6.184;2022-11-20T16:55:51;5.70;99.90
15900;DHT22;8048;50.644;6.184;2022-11-20T16:58:17;5.80;99.90
15900;DHT22;8048;50.644;6.184;2022-11-20T17:00:43;5.80;99.90
15900;DHT22;8048;50.644;6.184;2022-11-20T17:03:08;5.80;99.90
15900;DHT22;8048;50.644;6.184;2022-11-20T17:05:34;5.80;99.90
15900;DHT22;8048;50.644;6.184;2022-11-20T17:08:00;5.80;99.90
15900;DHT22;8048;50.644;6.184;2022-11-20T17:10:26;5.80;99.90
15900;DHT22;8048;50.644;6.184;2022-11-20T17:12:52;5.80;99.90
15900;DHT22;8048;50.644;6.184;2022-11-20T17:15:17;5.90;99.90
15900;DHT22;8048;50.644;6.184;2022-11-20T17:17:43;5.90;99.90
15900;DHT22;8048;50.644;6.184;2022-11-20T17:20:09;5.90;99.90
15900;DHT22;8048;50.644;6.184;2022-11-20T17:22:36;5.90;99.90
15900;DHT22;8048;50.644;6.184;2022-11-20T17:25:02;5.90;99.90
15900;DHT22;8048;50.644;6.184;2022-11-20T17:27:27;5.90;99.90
15900;DHT22;8048;50.644;6.184;2022-11-20T17:29:53;6.00;99.90
15900;DHT22;8048;50.644;6.184;2022-11-20T17:32:19;5.90;99.90
15900;DHT22;8048;50.644;6.184;2022-11-20T17:34:45;6.00;99.90
15900;DHT22;8048;50.644;6.184;2022-11-20T17:37:10;6.00;99.90
15900;DHT22;8048;50.644;6.184;2022-11-20T17:39:36;6.00;99.90
15900;DHT22;8048;50.644;6.184;2022-11-20T17:42:01;6.10;99.90